createdAt,value
2023-04-09T00:02:58.717Z,13.35
2023-04-09T00:06:01.383Z,14.07
2023-04-09T00:09:03.850Z,13.07
2023-04-09T00:12:06.696Z,14.38
2023-04-09T00:15:17.763Z,13.07
2023-04-09T00:18:30.712Z,15.10
2023-04-09T00:21:33.411Z,14.13
2023-04-09T00:24:36.327Z,14.85
2023-04-09T00:27:38.736Z,13.30
2023-04-09T00:30:42.876Z,13.05
2023-04-09T00:33:45.612Z,12.77
2023-04-09T00:36:48.035Z,13.40
2023-04-09T00:39:50.795Z,13.65
2023-04-09T00:42:53.356Z,13.85
2023-04-09T00:45:57.474Z,13.57
2023-04-09T00:49:02.062Z,13.98
2023-04-09T00:52:06.808Z,14.57
2023-04-09T00:55:11.158Z,13.90
2023-04-09T00:58:14.366Z,14.00
2023-04-09T01:01:18.306Z,15.20
2023-04-09T01:04:22.152Z,14.18
2023-04-09T01:07:41.136Z,13.20
2023-04-09T01:10:48.613Z,13.75
2023-04-09T01:14:00.662Z,13.30
2023-04-09T01:17:07.587Z,14.48
2023-04-09T01:20:15.818Z,14.13
2023-04-09T01:23:26.829Z,13.70
2023-04-09T01:26:42.550Z,13.00
2023-04-09T01:29:52.616Z,15.00
2023-04-09T01:32:57.168Z,13.77
2023-04-09T01:36:01.661Z,14.23
2023-04-09T01:39:04.634Z,13.32
2023-04-09T01:42:11.211Z,13.68
2023-04-09T01:45:16.917Z,13.38
2023-04-09T01:48:20.803Z,13.38
2023-04-09T01:51:24.039Z,13.60
2023-04-09T01:54:26.820Z,15.23
2023-04-09T01:57:30.196Z,12.80
2023-04-09T02:00:39.028Z,14.85
2023-04-09T02:03:47.682Z,13.18
2023-04-09T02:06:58.970Z,12.82
2023-04-09T02:10:02.889Z,13.63
2023-04-09T02:13:06.905Z,13.10
2023-04-09T02:16:13.423Z,12.80
2023-04-09T02:19:16.530Z,13.75
2023-04-09T02:22:19.173Z,12.93
2023-04-09T02:25:24.761Z,13.45
2023-04-09T02:28:27.474Z,11.55
2023-04-09T02:31:31.700Z,12.85
2023-04-09T02:34:34.428Z,13.57
2023-04-09T02:37:36.913Z,12.88
2023-04-09T02:40:40.153Z,14.23
2023-04-09T02:43:42.688Z,13.45
2023-04-09T02:46:48.545Z,12.75
2023-04-09T02:49:51.121Z,13.38
2023-04-09T02:52:53.965Z,12.13
2023-04-09T02:55:56.723Z,12.18
2023-04-09T02:58:59.176Z,12.13
2023-04-09T03:02:03.241Z,11.63
2023-04-09T03:05:06.899Z,12.77
2023-04-09T03:11:11.847Z,11.63
2023-04-09T03:14:14.281Z,12.93
2023-04-09T03:17:18.165Z,11.73
2023-04-09T03:20:21.229Z,11.25
2023-04-09T03:23:24.246Z,12.35
2023-04-09T03:26:27.634Z,11.73
2023-04-09T03:29:30.623Z,12.70
2023-04-09T03:32:34.668Z,11.75
2023-04-09T03:35:37.234Z,11.65
2023-04-09T03:38:39.857Z,12.15
2023-04-09T03:41:42.571Z,13.55
2023-04-09T03:44:45.457Z,11.68
2023-04-09T03:47:49.294Z,11.05
2023-04-09T03:50:51.849Z,11.60
2023-04-09T03:53:54.396Z,11.80
2023-04-09T03:56:57.225Z,12.70
2023-04-09T03:59:59.836Z,12.93
2023-04-09T04:03:04.135Z,11.07
2023-04-09T04:06:07.280Z,12.77
2023-04-09T04:09:09.775Z,12.40
2023-04-09T04:12:12.285Z,12.02
2023-04-09T04:15:15.155Z,12.40
2023-04-09T04:18:19.500Z,11.18
2023-04-09T04:21:21.997Z,11.63
2023-04-09T04:24:24.863Z,12.52
2023-04-09T04:27:27.305Z,11.20
2023-04-09T04:30:30.091Z,11.50
2023-04-09T04:33:34.083Z,11.50
2023-04-09T04:36:38.009Z,11.13
2023-04-09T04:39:40.487Z,12.57
2023-04-09T04:42:43.072Z,12.45
2023-04-09T04:45:45.756Z,11.82
2023-04-09T04:48:50.192Z,11.48
2023-04-09T04:51:52.971Z,11.55
2023-04-09T04:54:55.564Z,11.60
2023-04-09T04:57:58.104Z,11.73
2023-04-09T05:01:01.473Z,10.80
2023-04-09T05:04:06.792Z,12.52
2023-04-09T05:07:09.197Z,12.00
2023-04-09T05:10:11.723Z,11.35
2023-04-09T05:13:14.248Z,10.90
2023-04-09T05:16:18.525Z,11.18
2023-04-09T05:19:22.609Z,11.30
2023-04-09T05:22:25.188Z,10.68
2023-04-09T05:25:27.944Z,11.13
2023-04-09T05:28:30.718Z,11.32
2023-04-09T05:31:33.235Z,11.23
2023-04-09T05:34:39.507Z,11.57
2023-04-09T05:37:41.948Z,10.60
2023-04-09T05:40:46.164Z,10.38
2023-04-09T05:43:48.667Z,11.27
2023-04-09T05:46:51.471Z,14.20
2023-04-09T05:49:55.947Z,12.75
2023-04-09T05:52:58.465Z,11.43
2023-04-09T05:56:01.027Z,11.70
2023-04-09T05:59:03.634Z,10.65
2023-04-09T06:02:06.825Z,11.55
2023-04-09T06:05:11.306Z,11.15
2023-04-09T06:08:14.132Z,12.52
2023-04-09T06:11:16.798Z,11.05
2023-04-09T06:14:19.500Z,11.95
2023-04-09T06:17:22.244Z,12.32
2023-04-09T06:20:26.244Z,11.27
2023-04-09T06:23:28.925Z,12.15
2023-04-09T06:26:31.920Z,10.75
2023-04-09T06:29:34.387Z,11.30
2023-04-09T06:32:46.856Z,11.02
2023-04-09T06:35:55.419Z,12.65
2023-04-09T06:38:59.157Z,12.77
2023-04-09T06:42:01.651Z,12.30
2023-04-09T06:45:08.867Z,13.02
2023-04-09T06:48:12.488Z,12.38
2023-04-09T06:54:18.916Z,11.95
2023-04-09T06:57:21.426Z,11.13
2023-04-09T07:00:24.068Z,11.50
2023-04-09T07:03:27.860Z,10.30
2023-04-09T07:06:32.029Z,12.35
2023-04-09T07:09:34.954Z,14.63
2023-04-09T07:12:37.671Z,15.40
2023-04-09T07:15:41.747Z,14.55
2023-04-09T07:18:45.047Z,13.88
2023-04-09T07:21:48.848Z,14.25
2023-04-09T07:24:54.451Z,14.77
2023-04-09T07:27:57.124Z,13.23
2023-04-09T07:31:01.528Z,14.48
2023-04-09T07:34:04.142Z,14.68
2023-04-09T07:37:08.014Z,16.92
2023-04-09T07:40:11.167Z,15.65
2023-04-09T07:43:13.742Z,12.10
2023-04-09T07:46:20.070Z,12.35
2023-04-09T07:49:22.551Z,17.25
2023-04-09T07:52:26.580Z,11.57
2023-04-09T07:55:29.475Z,20.67
2023-04-09T07:58:32.293Z,13.05
2023-04-09T08:01:34.920Z,13.82
2023-04-09T08:05:00.764Z,17.10
2023-04-09T08:08:07.261Z,13.35
2023-04-09T08:11:09.925Z,13.90
2023-04-09T08:14:13.765Z,14.43
2023-04-09T08:17:16.259Z,13.50
2023-04-09T08:20:18.777Z,13.48
2023-04-09T08:23:22.934Z,14.75
2023-04-09T08:26:25.648Z,12.98
2023-04-09T08:29:28.336Z,13.57
2023-04-09T08:32:30.992Z,12.02
2023-04-09T08:35:33.824Z,16.52
2023-04-09T08:38:38.174Z,13.43
2023-04-09T08:41:43.986Z,12.90
2023-04-09T08:44:46.995Z,15.73
2023-04-09T08:47:52.213Z,12.40
2023-04-09T08:50:54.867Z,12.52
2023-04-09T08:54:03.959Z,12.40
2023-04-09T08:57:07.268Z,13.32
2023-04-09T09:00:10.587Z,12.20
2023-04-09T09:03:14.236Z,12.23
2023-04-09T09:06:22.825Z,12.13
2023-04-09T09:09:26.952Z,13.20
2023-04-09T09:12:38.689Z,13.23
2023-04-09T09:15:41.325Z,12.07
2023-04-09T09:18:45.099Z,12.50
2023-04-09T09:21:56.678Z,11.77
2023-04-09T09:25:01.006Z,13.38
2023-04-09T09:28:09.034Z,12.20
2023-04-09T09:31:13.103Z,11.63
2023-04-09T09:34:16.597Z,11.35
2023-04-09T09:37:27.944Z,13.50
2023-04-09T09:40:32.016Z,10.98
2023-04-09T09:43:42.062Z,13.52
2023-04-09T09:46:44.591Z,13.02
2023-04-09T09:49:48.887Z,11.48
2023-04-09T09:52:54.802Z,11.93
2023-04-09T09:56:01.077Z,12.20
2023-04-09T09:59:08.803Z,11.75
2023-04-09T10:02:19.320Z,11.02
2023-04-09T10:05:26.840Z,12.30
2023-04-09T10:08:31.326Z,11.20
2023-04-09T10:11:37.910Z,13.40
2023-04-09T10:14:42.791Z,11.93
2023-04-09T10:17:46.221Z,12.48
2023-04-09T10:29:51.889Z,11.68
2023-04-09T10:32:55.027Z,11.75
2023-04-09T10:36:03.276Z,12.00
2023-04-09T10:39:13.606Z,11.93
2023-04-09T10:42:33.114Z,12.25
2023-04-09T10:45:45.819Z,12.70
2023-04-09T10:53:34.012Z,11.32
2023-04-09T10:56:36.639Z,12.05
2023-04-09T10:59:41.157Z,11.95
2023-04-09T11:03:11.662Z,11.75
2023-04-09T11:06:17.689Z,11.60
2023-04-09T11:09:20.208Z,11.73
2023-04-09T11:12:22.712Z,10.60
2023-04-09T11:15:25.398Z,11.52
2023-04-09T11:18:31.070Z,11.85
2023-04-09T11:21:35.889Z,11.82
2023-04-09T11:24:42.286Z,11.68
2023-04-09T11:27:47.014Z,12.13
2023-04-09T11:30:53.713Z,11.73
2023-04-09T11:33:57.703Z,12.32
2023-04-09T11:37:05.106Z,11.40
2023-04-09T11:40:08.971Z,10.73
2023-04-09T11:43:11.643Z,11.85
2023-04-09T11:46:15.335Z,10.50
2023-04-09T11:49:19.491Z,12.00
2023-04-09T11:52:22.121Z,10.60
2023-04-09T11:55:26.079Z,11.68
2023-04-09T11:58:28.497Z,11.88
2023-04-09T12:01:32.907Z,11.60
2023-04-09T12:04:37.201Z,10.88
2023-04-09T12:07:44.226Z,10.25
2023-04-09T12:10:54.684Z,11.82
2023-04-09T12:14:03.017Z,11.90
2023-04-09T12:17:05.789Z,9.77
2023-04-09T12:20:11.999Z,10.77
2023-04-09T12:23:14.883Z,10.90
2023-04-09T12:26:17.770Z,10.25
2023-04-09T12:29:23.102Z,10.15
2023-04-09T12:32:25.989Z,10.85
2023-04-09T12:35:30.158Z,10.30
2023-04-09T12:38:32.629Z,11.20
2023-04-09T12:41:35.315Z,10.70
2023-04-09T12:44:39.165Z,11.63
2023-04-09T12:47:41.871Z,10.77
2023-04-09T12:50:46.207Z,11.07
2023-04-09T12:53:48.738Z,9.95
2023-04-09T12:56:51.207Z,9.70
2023-04-09T12:59:53.796Z,10.05
2023-04-09T13:02:56.744Z,10.70
2023-04-09T13:06:01.049Z,10.25
2023-04-09T13:09:03.620Z,10.05
2023-04-09T13:12:06.478Z,10.95
2023-04-09T13:15:09.315Z,10.73
2023-04-09T13:18:12.208Z,11.57
2023-04-09T13:21:18.708Z,11.32
2023-04-09T13:24:21.514Z,10.18
2023-04-09T13:27:24.258Z,12.05
2023-04-09T13:30:26.853Z,11.00
2023-04-09T13:33:29.341Z,10.88
2023-04-09T13:36:33.501Z,10.60
2023-04-09T13:39:36.337Z,9.90
2023-04-09T13:42:39.266Z,10.35
2023-04-09T13:45:41.852Z,12.02
2023-04-09T13:48:44.567Z,10.60
2023-04-09T13:51:49.630Z,12.65
2023-04-09T13:54:53.476Z,12.60
2023-04-09T13:57:56.205Z,15.20
2023-04-09T14:00:59.188Z,10.65
2023-04-09T14:07:06.489Z,10.52
2023-04-09T14:10:09.930Z,11.48
2023-04-09T14:13:12.412Z,12.13
2023-04-09T14:16:15.691Z,12.02
2023-04-09T14:19:18.604Z,12.40
2023-04-09T14:22:22.437Z,13.32
2023-04-09T14:25:24.874Z,15.65
2023-04-09T14:28:27.342Z,22.80
2023-04-09T14:31:32.190Z,18.13
2023-04-09T14:34:34.812Z,14.27
2023-04-09T14:37:40.901Z,19.60
2023-04-09T14:40:43.650Z,24.50
2023-04-09T14:43:46.242Z,31.40
2023-04-09T14:46:48.954Z,25.50
2023-04-09T14:49:51.714Z,19.45
2023-04-09T14:52:55.663Z,15.23
2023-04-09T14:55:58.356Z,16.67
2023-04-09T14:59:00.964Z,19.30
2023-04-09T15:02:04.888Z,18.75
2023-04-09T15:05:08.664Z,13.00
2023-04-09T15:08:14.117Z,18.25
2023-04-09T15:11:17.237Z,18.30
2023-04-09T15:14:20.575Z,17.95
2023-04-09T15:17:23.322Z,18.52
2023-04-09T15:20:25.789Z,20.17
2023-04-09T15:23:33.543Z,18.85
2023-04-09T15:26:36.103Z,19.63
2023-04-09T15:29:38.668Z,19.92
2023-04-09T15:32:41.454Z,20.85
2023-04-09T15:35:44.054Z,21.45
2023-04-09T15:38:48.125Z,19.02
2023-04-09T15:41:51.144Z,21.17
2023-04-09T15:44:53.738Z,19.42
2023-04-09T15:47:56.545Z,18.13
2023-04-09T15:50:59.238Z,19.02
2023-04-09T15:54:03.194Z,18.15
2023-04-09T15:57:06.148Z,18.02
2023-04-09T16:00:13.404Z,18.80
2023-04-09T16:03:25.855Z,16.65
2023-04-09T16:06:31.569Z,16.85
2023-04-09T16:09:40.560Z,18.00
2023-04-09T16:12:43.226Z,14.48
2023-04-09T16:15:48.088Z,16.08
2023-04-09T16:18:57.570Z,16.35
2023-04-09T16:22:00.161Z,14.27
2023-04-09T16:25:11.863Z,14.77
2023-04-09T16:28:15.317Z,16.05
2023-04-09T16:34:20.948Z,16.33
2023-04-09T16:37:23.469Z,13.88
2023-04-09T16:40:27.565Z,14.20
2023-04-09T16:43:31.854Z,15.32
2023-04-09T16:46:34.499Z,15.35
2023-04-09T16:49:37.115Z,15.10
2023-04-09T16:52:40.179Z,14.73
2023-04-09T16:55:44.878Z,13.05
2023-04-09T16:58:47.372Z,14.23
2023-04-09T17:01:51.822Z,15.25
2023-04-09T17:04:55.162Z,13.23
2023-04-09T17:07:57.902Z,14.85
2023-04-09T17:11:05.017Z,12.60
2023-04-09T17:14:07.490Z,15.43
2023-04-09T17:17:10.082Z,13.77
2023-04-09T17:20:14.167Z,15.73
2023-04-09T17:23:16.704Z,13.60
2023-04-09T17:26:20.884Z,14.23
2023-04-09T17:29:23.815Z,13.55
2023-04-09T17:32:26.335Z,14.45
2023-04-09T17:35:28.999Z,13.05
2023-04-09T17:38:31.936Z,13.45
2023-04-09T17:41:36.603Z,13.18
2023-04-09T17:44:39.209Z,13.65
2023-04-09T17:47:42.043Z,12.45
2023-04-09T17:50:44.768Z,11.75
2023-04-09T17:53:47.498Z,12.30
2023-04-09T17:56:52.129Z,13.43
2023-04-09T17:59:54.726Z,11.95
2023-04-09T18:02:58.734Z,12.88
2023-04-09T18:06:01.578Z,12.60
2023-04-09T18:09:04.142Z,11.65
2023-04-09T18:12:08.490Z,11.75
2023-04-09T18:15:11.819Z,13.30
2023-04-09T18:18:14.381Z,11.70
2023-04-09T18:21:18.160Z,13.73
2023-04-09T18:24:20.950Z,10.90
2023-04-09T18:27:24.822Z,12.40
2023-04-09T18:30:27.395Z,11.65
2023-04-09T18:33:29.886Z,12.30
2023-04-09T18:36:32.354Z,11.75
2023-04-09T18:39:36.331Z,11.63
2023-04-09T18:42:40.683Z,12.02
2023-04-09T18:45:43.176Z,12.13
2023-04-09T18:48:46.984Z,11.90
2023-04-09T18:51:49.452Z,10.77
2023-04-09T18:54:51.929Z,11.25
2023-04-09T18:57:57.488Z,12.35
2023-04-09T19:01:00.919Z,11.35
2023-04-09T19:04:03.707Z,11.45
2023-04-09T19:07:06.663Z,10.65
2023-04-09T19:10:09.856Z,12.18
2023-04-09T19:13:13.776Z,10.98
2023-04-09T19:16:17.014Z,10.15
2023-04-09T19:19:19.631Z,11.40
2023-04-09T19:22:22.219Z,10.25
2023-04-09T19:25:27.464Z,11.13
2023-04-09T19:28:31.322Z,11.20
2023-04-09T19:31:34.087Z,11.15
2023-04-09T19:34:38.703Z,11.43
2023-04-09T19:37:41.205Z,11.43
2023-04-09T19:40:45.496Z,11.75
2023-04-09T19:44:13.064Z,11.02
2023-04-09T19:47:15.973Z,11.38
2023-04-09T19:50:20.239Z,11.30
2023-04-09T19:53:22.841Z,11.43
2023-04-09T19:56:25.952Z,11.48
2023-04-09T19:59:31.278Z,11.70
2023-04-09T20:02:33.999Z,11.00
2023-04-09T20:05:36.528Z,12.18
2023-04-09T20:08:39.344Z,11.68
2023-04-09T20:11:42.194Z,10.93
2023-04-09T20:14:47.059Z,12.15
2023-04-09T20:17:51.087Z,10.68
2023-04-09T20:20:54.459Z,12.40
2023-04-09T20:23:56.977Z,11.10
2023-04-09T20:26:59.978Z,12.10
2023-04-09T20:30:04.183Z,12.07
2023-04-09T20:33:07.186Z,10.43
2023-04-09T20:36:15.309Z,11.98
2023-04-09T20:39:18.337Z,12.10
2023-04-09T20:42:21.216Z,12.70
2023-04-09T20:45:25.550Z,12.82
2023-04-09T20:48:31.336Z,12.52
2023-04-09T20:51:33.965Z,12.23
2023-04-09T20:54:37.664Z,11.98
2023-04-09T20:57:40.413Z,13.48
2023-04-09T21:00:44.345Z,12.82
2023-04-09T21:03:47.238Z,12.93
2023-04-09T21:06:50.061Z,12.20
2023-04-09T21:09:52.619Z,14.13
2023-04-09T21:12:55.344Z,12.60
2023-04-09T21:16:00.086Z,11.75
2023-04-09T21:19:07.132Z,12.25
2023-04-09T21:22:10.192Z,13.13
2023-04-09T21:25:15.121Z,14.32
2023-04-09T21:28:18.023Z,11.98
2023-04-09T21:31:21.988Z,13.20
2023-04-09T21:34:30.123Z,13.65
2023-04-09T21:37:33.738Z,13.27
2023-04-09T21:40:36.326Z,12.50
2023-04-09T21:43:39.343Z,12.23
2023-04-09T21:46:43.486Z,11.50
2023-04-09T21:49:46.446Z,12.82
2023-04-09T21:52:49.192Z,13.23
2023-04-09T21:55:51.705Z,12.55
2023-04-09T21:58:54.713Z,13.35
2023-04-09T22:02:01.771Z,13.60
2023-04-09T22:05:04.848Z,13.98
2023-04-09T22:08:07.783Z,12.38
2023-04-09T22:11:10.472Z,11.73
2023-04-09T22:14:12.901Z,13.65
2023-04-09T22:17:17.512Z,13.05
2023-04-09T22:20:20.047Z,12.88
2023-04-09T22:23:23.021Z,13.32
2023-04-09T22:26:25.560Z,13.10
2023-04-09T22:29:28.618Z,13.23
2023-04-09T22:32:33.336Z,12.98
2023-04-09T22:35:36.378Z,13.13
2023-04-09T22:38:39.357Z,13.35
2023-04-09T22:41:42.143Z,12.43
2023-04-09T22:44:44.857Z,12.25
2023-04-09T22:47:49.253Z,12.57
2023-04-09T22:50:52.171Z,13.20
2023-04-09T22:53:54.615Z,12.05
2023-04-09T22:56:57.770Z,12.50
2023-04-09T23:00:00.530Z,12.68
2023-04-09T23:03:05.011Z,13.65
2023-04-09T23:06:07.817Z,12.57
2023-04-09T23:09:10.310Z,12.07
2023-04-09T23:12:12.867Z,12.52
2023-04-09T23:15:15.790Z,12.07
2023-04-09T23:18:19.828Z,11.95
2023-04-09T23:21:22.438Z,13.48
2023-04-09T23:24:24.976Z,11.45
2023-04-09T23:27:28.819Z,13.48
2023-04-09T23:30:32.173Z,12.07
2023-04-09T23:33:36.255Z,12.18
2023-04-09T23:36:38.836Z,12.80
2023-04-09T23:39:41.803Z,12.48
2023-04-09T23:42:44.692Z,11.57
2023-04-09T23:45:49.814Z,12.48
2023-04-09T23:48:54.152Z,12.40
2023-04-09T23:51:56.721Z,12.77
2023-04-09T23:55:00.501Z,12.65
2023-04-09T23:58:03.255Z,11.77
